createdAt,value
2022-11-25T00:00:03.393Z,1.88
2022-11-25T00:01:03.436Z,1.81
2022-11-25T00:02:03.448Z,1.88
2022-11-25T00:03:03.470Z,1.73
2022-11-25T00:04:03.367Z,1.73
2022-11-25T00:05:03.432Z,1.80
2022-11-25T00:06:03.348Z,1.76
2022-11-25T00:07:03.334Z,1.70
2022-11-25T00:08:03.369Z,1.67
2022-11-25T00:09:03.379Z,1.74
2022-11-25T00:10:03.325Z,1.84
2022-11-25T00:11:03.297Z,1.81
2022-11-25T00:12:03.329Z,1.84
2022-11-25T00:13:03.304Z,1.88
2022-11-25T00:14:03.450Z,1.85
2022-11-25T00:15:03.276Z,1.80
2022-11-25T00:16:04.125Z,1.73
2022-11-25T00:17:03.347Z,1.68
2022-11-25T00:18:03.271Z,1.70
2022-11-25T00:19:04.263Z,1.68
2022-11-25T00:20:03.196Z,1.73
2022-11-25T00:21:03.188Z,1.63
2022-11-25T00:22:03.291Z,1.68
2022-11-25T00:23:35.058Z,1.67
2022-11-25T00:24:03.260Z,1.66
2022-11-25T00:25:03.203Z,1.60
2022-11-25T00:26:03.165Z,1.62
2022-11-25T00:27:03.127Z,1.78
2022-11-25T00:28:03.147Z,1.71
2022-11-25T00:29:03.129Z,1.74
2022-11-25T00:30:03.097Z,1.74
2022-11-25T00:31:03.097Z,1.71
2022-11-25T00:32:03.201Z,1.73
2022-11-25T00:33:03.096Z,1.67
2022-11-25T00:34:03.107Z,1.68
2022-11-25T00:35:03.055Z,1.74
2022-11-25T00:36:03.166Z,1.60
2022-11-25T00:37:03.081Z,1.53
2022-11-25T00:38:03.034Z,1.56
2022-11-25T00:39:03.013Z,1.45
2022-11-25T00:40:03.036Z,1.56
2022-11-25T00:41:03.048Z,1.56
2022-11-25T00:42:03.069Z,1.45
2022-11-25T00:43:03.021Z,1.49
2022-11-25T00:44:02.996Z,1.50
2022-11-25T00:45:03.024Z,1.53
2022-11-25T00:46:03.085Z,1.48
2022-11-25T00:47:02.984Z,1.50
2022-11-25T00:48:02.955Z,1.45
2022-11-25T00:49:02.941Z,1.44
2022-11-25T00:50:03.084Z,1.38
2022-11-25T00:51:02.956Z,1.37
2022-11-25T00:52:02.995Z,1.31
2022-11-25T00:53:02.962Z,1.24
2022-11-25T00:54:02.918Z,1.30
2022-11-25T00:55:02.912Z,1.32
2022-11-25T00:56:02.913Z,1.40
2022-11-25T00:57:02.890Z,1.37
2022-11-25T00:58:02.895Z,1.48
2022-11-25T00:59:02.894Z,1.38
2022-11-25T01:00:02.897Z,1.50
2022-11-25T01:01:02.962Z,1.44
2022-11-25T01:02:02.951Z,1.42
2022-11-25T01:03:34.763Z,1.49
2022-11-25T01:04:02.857Z,1.59
2022-11-25T01:05:03.893Z,1.50
2022-11-25T01:06:02.816Z,1.41
2022-11-25T01:07:02.795Z,1.48
2022-11-25T01:08:02.791Z,1.31
2022-11-25T01:09:02.910Z,1.35
2022-11-25T01:10:02.809Z,1.40
2022-11-25T01:11:02.817Z,1.32
2022-11-25T01:12:02.777Z,1.31
2022-11-25T01:13:02.759Z,1.38
2022-11-25T01:14:02.766Z,1.24
2022-11-25T01:15:02.763Z,1.35
2022-11-25T01:16:02.814Z,1.34
2022-11-25T01:17:02.737Z,1.34
2022-11-25T01:18:02.746Z,1.35
2022-11-25T01:19:02.792Z,1.41
2022-11-25T01:20:02.728Z,1.34
2022-11-25T01:21:02.727Z,1.38
2022-11-25T01:22:02.723Z,1.44
2022-11-25T01:23:02.698Z,1.44
2022-11-25T01:24:02.772Z,1.48
2022-11-25T01:25:02.699Z,1.44
2022-11-25T01:26:02.651Z,1.41
2022-11-25T01:27:02.668Z,1.41
2022-11-25T01:28:02.669Z,1.48
2022-11-25T01:29:02.640Z,1.44
2022-11-25T01:30:02.634Z,1.49
2022-11-25T01:31:02.611Z,1.49
2022-11-25T01:32:02.720Z,1.49
2022-11-25T01:33:02.602Z,1.49
2022-11-25T01:34:02.613Z,1.52
2022-11-25T01:35:02.592Z,1.53
2022-11-25T01:36:02.579Z,1.48
2022-11-25T01:37:02.589Z,1.49
2022-11-25T01:38:02.585Z,1.50
2022-11-25T01:39:02.603Z,1.49
2022-11-25T01:40:02.563Z,1.49
2022-11-25T01:41:02.554Z,1.37
2022-11-25T01:42:02.585Z,1.49
2022-11-25T01:43:02.560Z,1.44
2022-11-25T01:44:02.526Z,1.52
2022-11-25T01:45:02.546Z,1.53
2022-11-25T01:46:02.560Z,1.42
2022-11-25T01:47:02.496Z,1.50
2022-11-25T01:48:02.508Z,1.44
2022-11-25T01:49:02.495Z,1.59
2022-11-25T01:50:02.579Z,1.58
2022-11-25T01:51:02.465Z,1.49
2022-11-25T01:52:02.468Z,1.52
2022-11-25T01:53:02.473Z,1.52
2022-11-25T01:54:02.440Z,1.49
2022-11-25T01:55:02.435Z,1.53
2022-11-25T01:56:02.451Z,1.37
2022-11-25T01:57:02.501Z,1.40
2022-11-25T01:58:02.429Z,1.48
2022-11-25T01:59:02.458Z,1.48
2022-11-25T02:00:02.427Z,1.44
2022-11-25T02:01:02.418Z,1.45
2022-11-25T02:02:02.439Z,1.44
2022-11-25T02:03:02.386Z,1.52
2022-11-25T02:04:02.359Z,1.45
2022-11-25T02:05:02.384Z,1.53
2022-11-25T02:06:02.359Z,1.52
2022-11-25T02:07:02.330Z,1.53
2022-11-25T02:08:02.331Z,1.59
2022-11-25T02:09:02.360Z,1.38
2022-11-25T02:10:02.367Z,1.45
2022-11-25T02:11:02.337Z,1.49
2022-11-25T02:12:02.323Z,1.49
2022-11-25T02:13:02.282Z,1.53
2022-11-25T02:14:03.212Z,1.52
2022-11-25T02:15:02.270Z,1.49
2022-11-25T02:16:02.345Z,1.42
2022-11-25T02:17:02.364Z,1.60
2022-11-25T02:18:02.257Z,1.55
2022-11-25T02:19:02.280Z,1.53
2022-11-25T02:20:02.259Z,1.58
2022-11-25T02:21:02.262Z,1.49
2022-11-25T02:22:02.231Z,1.50
2022-11-25T02:23:02.239Z,1.49
2022-11-25T02:24:02.212Z,1.52
2022-11-25T02:25:02.199Z,1.53
2022-11-25T02:26:02.188Z,1.49
2022-11-25T02:27:02.214Z,1.52
2022-11-25T02:28:02.204Z,1.55
2022-11-25T02:29:02.168Z,1.44
2022-11-25T02:30:02.184Z,1.44
2022-11-25T02:31:02.183Z,1.45
2022-11-25T02:32:02.216Z,1.37
2022-11-25T02:33:02.139Z,1.42
2022-11-25T02:34:02.145Z,1.34
2022-11-25T02:35:02.116Z,1.20
2022-11-25T02:36:02.166Z,1.32
2022-11-25T02:37:02.111Z,1.23
2022-11-25T02:38:34.044Z,1.23
2022-11-25T02:39:02.105Z,1.23
2022-11-25T02:40:02.127Z,1.20
2022-11-25T02:41:02.070Z,1.16
2022-11-25T02:42:02.084Z,1.17
2022-11-25T02:43:02.066Z,1.22
2022-11-25T02:44:02.094Z,1.17
2022-11-25T02:45:02.076Z,1.30
2022-11-25T02:46:02.154Z,1.20
2022-11-25T02:47:02.060Z,1.13
2022-11-25T02:48:02.021Z,1.17
2022-11-25T02:49:10.226Z,1.23
2022-11-25T02:50:04.003Z,1.10
2022-11-25T02:51:02.023Z,1.16
2022-11-25T02:52:02.022Z,1.12
2022-11-25T02:53:01.994Z,1.05
2022-11-25T02:54:01.989Z,1.10
2022-11-25T02:55:02.003Z,1.13
2022-11-25T02:56:01.984Z,1.06
2022-11-25T02:57:01.939Z,1.13
2022-11-25T02:58:01.935Z,1.19
2022-11-25T02:59:01.955Z,1.22
2022-11-25T03:00:01.964Z,1.13
2022-11-25T03:01:01.972Z,1.16
2022-11-25T03:02:01.947Z,1.14
2022-11-25T03:03:01.914Z,1.13
2022-11-25T03:04:01.911Z,1.19
2022-11-25T03:05:01.942Z,1.19
2022-11-25T03:06:01.875Z,1.14
2022-11-25T03:07:01.914Z,1.10
2022-11-25T03:08:01.865Z,1.13
2022-11-25T03:09:01.885Z,1.20
2022-11-25T03:10:01.878Z,1.10
2022-11-25T03:11:01.839Z,1.05
2022-11-25T03:12:01.829Z,1.05
2022-11-25T03:13:01.831Z,1.10
2022-11-25T03:14:01.843Z,1.02
2022-11-25T03:15:01.805Z,1.12
2022-11-25T03:16:01.821Z,1.02
2022-11-25T03:17:01.836Z,1.10
2022-11-25T03:18:01.776Z,1.17
2022-11-25T03:19:01.765Z,1.22
2022-11-25T03:20:01.786Z,1.17
2022-11-25T03:21:01.763Z,1.22
2022-11-25T03:22:01.767Z,1.19
2022-11-25T03:23:01.818Z,1.20
2022-11-25T03:24:01.738Z,1.17
2022-11-25T03:25:01.757Z,1.17
2022-11-25T03:26:01.711Z,1.20
2022-11-25T03:27:01.731Z,1.10
2022-11-25T03:28:01.709Z,1.14
2022-11-25T03:29:01.711Z,1.12
2022-11-25T03:30:01.777Z,1.08
2022-11-25T03:31:01.678Z,1.10
2022-11-25T03:32:04.275Z,1.13
2022-11-25T03:33:03.674Z,0.96
2022-11-25T03:34:01.677Z,1.01
2022-11-25T03:35:01.675Z,1.01
2022-11-25T03:36:01.639Z,1.10
2022-11-25T03:37:01.686Z,1.20
2022-11-25T03:38:01.639Z,1.13
2022-11-25T03:39:01.651Z,1.12
2022-11-25T03:40:01.619Z,1.20
2022-11-25T03:41:01.615Z,1.17
2022-11-25T03:42:01.618Z,1.13
2022-11-25T03:43:01.636Z,1.19
2022-11-25T03:44:01.583Z,1.16
2022-11-25T03:45:01.586Z,1.20
2022-11-25T03:46:01.737Z,1.04
2022-11-25T03:47:01.578Z,1.06
2022-11-25T04:03:10.750Z,0.98
2022-11-25T04:04:10.748Z,0.98
2022-11-25T04:05:11.908Z,0.96
2022-11-25T04:06:43.766Z,0.94
2022-11-25T04:07:11.891Z,0.88
2022-11-25T04:08:44.817Z,0.94
2022-11-25T04:09:11.844Z,0.91
2022-11-25T04:10:11.831Z,0.96
2022-11-25T04:11:11.824Z,0.96
2022-11-25T04:12:11.814Z,1.01
2022-11-25T04:13:11.847Z,1.06
2022-11-25T04:14:11.813Z,0.96
2022-11-25T04:15:11.801Z,1.04
2022-11-25T04:16:11.809Z,1.01
2022-11-25T04:17:11.876Z,0.99
2022-11-25T04:18:11.804Z,1.12
2022-11-25T04:19:11.800Z,1.08
2022-11-25T04:20:11.772Z,1.02
2022-11-25T04:21:11.756Z,1.01
2022-11-25T04:22:11.760Z,0.96
2022-11-25T04:23:11.746Z,0.94
2022-11-25T04:24:11.757Z,0.88
2022-11-25T04:25:11.746Z,1.02
2022-11-25T04:26:11.723Z,0.94
2022-11-25T04:27:11.698Z,0.92
2022-11-25T04:28:12.398Z,0.92
2022-11-25T04:29:11.691Z,1.02
2022-11-25T04:30:11.695Z,0.92
2022-11-25T04:31:11.782Z,0.92
2022-11-25T04:32:11.655Z,0.95
2022-11-25T04:33:11.669Z,1.01
2022-11-25T04:34:11.644Z,1.01
2022-11-25T04:35:11.632Z,1.01
2022-11-25T04:36:11.651Z,1.05
2022-11-25T04:37:11.626Z,1.04
2022-11-25T04:38:11.721Z,0.98
2022-11-25T04:39:11.658Z,1.02
2022-11-25T04:40:11.603Z,1.01
2022-11-25T04:41:11.636Z,0.98
2022-11-25T04:42:11.619Z,1.04
2022-11-25T04:43:11.595Z,1.02
2022-11-25T04:44:11.601Z,0.98
2022-11-25T04:45:22.964Z,0.92
2022-11-25T04:46:14.592Z,1.06
2022-11-25T04:47:12.646Z,0.95
2022-11-25T04:48:11.695Z,1.08
2022-11-25T04:49:11.542Z,1.05
2022-11-25T04:50:11.551Z,1.01
2022-11-25T04:51:11.557Z,1.02
2022-11-25T04:52:11.514Z,1.08
2022-11-25T04:53:11.509Z,1.02
2022-11-25T04:54:17.183Z,1.02
2022-11-25T04:55:13.510Z,0.98
2022-11-25T04:56:11.518Z,0.96
2022-11-25T04:57:11.470Z,0.98
2022-11-25T04:58:11.659Z,1.02
2022-11-25T04:59:11.463Z,0.87
2022-11-25T05:00:11.438Z,0.92
2022-11-25T05:01:11.527Z,0.99
2022-11-25T05:02:11.546Z,0.98
2022-11-25T05:03:11.424Z,0.95
2022-11-25T05:04:11.415Z,0.98
2022-11-25T05:05:11.437Z,1.04
2022-11-25T05:06:11.415Z,1.06
2022-11-25T05:07:11.432Z,1.10
2022-11-25T05:08:11.526Z,1.01
2022-11-25T05:09:11.375Z,1.08
2022-11-25T05:10:11.414Z,1.06
2022-11-25T05:11:11.362Z,1.02
2022-11-25T05:12:11.346Z,1.04
2022-11-25T05:13:11.414Z,1.08
2022-11-25T05:14:11.369Z,1.06
2022-11-25T05:15:11.325Z,1.02
2022-11-25T05:16:11.428Z,1.02
2022-11-25T05:17:11.342Z,0.94
2022-11-25T05:18:11.600Z,1.04
2022-11-25T05:19:11.381Z,1.12
2022-11-25T05:20:11.304Z,1.13
2022-11-25T05:21:11.287Z,1.10
2022-11-25T05:22:11.301Z,1.12
2022-11-25T05:23:11.291Z,1.22
2022-11-25T05:24:11.280Z,1.19
2022-11-25T05:25:11.365Z,1.26
2022-11-25T05:26:11.256Z,1.26
2022-11-25T05:27:11.279Z,1.23
2022-11-25T05:28:11.239Z,1.28
2022-11-25T05:29:11.216Z,1.24
2022-11-25T05:30:11.215Z,1.24
2022-11-25T05:31:11.295Z,1.23
2022-11-25T05:32:11.262Z,1.16
2022-11-25T05:33:11.216Z,1.22
2022-11-25T05:34:11.204Z,1.22
2022-11-25T05:35:11.187Z,1.19
2022-11-25T05:36:11.208Z,1.28
2022-11-25T05:37:11.156Z,1.22
2022-11-25T05:38:11.178Z,1.24
2022-11-25T05:39:11.169Z,1.26
2022-11-25T05:40:11.141Z,1.35
2022-11-25T05:41:11.197Z,1.20
2022-11-25T05:42:11.131Z,1.26
2022-11-25T05:43:11.121Z,1.31
2022-11-25T05:44:11.123Z,1.24
2022-11-25T05:45:11.162Z,1.30
2022-11-25T05:46:11.149Z,1.34
2022-11-25T05:47:11.111Z,1.35
2022-11-25T05:48:11.083Z,1.23
2022-11-25T05:49:11.084Z,1.30
2022-11-25T05:50:11.113Z,1.34
2022-11-25T05:51:11.990Z,1.28
2022-11-25T05:52:43.013Z,1.30
2022-11-25T05:53:42.944Z,1.40
2022-11-25T05:54:43.059Z,1.35
2022-11-25T05:55:43.027Z,1.30
2022-11-25T05:56:43.073Z,1.42
2022-11-25T05:57:42.977Z,1.42
2022-11-25T05:58:11.122Z,1.45
2022-11-25T06:01:19.577Z,1.35
2022-11-25T06:02:26.701Z,1.32
2022-11-25T06:03:26.618Z,1.30
2022-11-25T06:04:52.651Z,1.30
2022-11-25T06:05:52.595Z,1.34
2022-11-25T06:06:52.618Z,1.28
2022-11-25T06:07:52.675Z,1.19
2022-11-25T06:08:20.664Z,1.17
2022-11-25T06:09:52.609Z,1.19
2022-11-25T06:10:20.643Z,1.32
2022-11-25T06:11:20.713Z,1.32
2022-11-25T06:12:20.633Z,1.26
2022-11-25T06:13:20.695Z,1.34
2022-11-25T06:14:20.614Z,1.26
2022-11-25T06:15:20.631Z,1.35
2022-11-25T06:16:20.626Z,1.34
2022-11-25T06:17:20.611Z,1.34
2022-11-25T06:18:20.626Z,1.38
2022-11-25T06:19:20.607Z,1.35
2022-11-25T06:20:20.566Z,1.37
2022-11-25T06:21:20.571Z,1.44
2022-11-25T06:22:20.561Z,1.42
2022-11-25T06:23:20.557Z,1.44
2022-11-25T06:24:20.549Z,1.53
2022-11-25T06:25:20.591Z,1.49
2022-11-25T06:26:20.516Z,1.35
2022-11-25T06:27:20.527Z,1.53
2022-11-25T06:28:20.505Z,1.45
2022-11-25T06:29:20.527Z,1.55
2022-11-25T06:30:20.594Z,1.52
2022-11-25T06:31:20.553Z,1.44
2022-11-25T06:32:20.493Z,1.40
2022-11-25T06:33:20.480Z,1.52
2022-11-25T06:34:20.471Z,1.52
2022-11-25T06:35:20.478Z,1.50
2022-11-25T06:36:20.474Z,1.53
2022-11-25T06:37:20.448Z,1.44
2022-11-25T06:38:20.434Z,1.59
2022-11-25T06:39:20.437Z,1.59
2022-11-25T06:40:20.471Z,1.53
2022-11-25T06:41:20.476Z,1.58
2022-11-25T06:42:20.507Z,1.62
2022-11-25T06:43:20.391Z,1.63
2022-11-25T06:44:20.446Z,1.49
2022-11-25T06:45:20.402Z,1.60
2022-11-25T06:46:24.767Z,1.59
2022-11-25T06:47:21.420Z,1.60
2022-11-25T06:48:20.411Z,1.62
2022-11-25T06:49:20.437Z,1.62
2022-11-25T06:50:20.409Z,1.59
2022-11-25T06:51:20.347Z,1.66
2022-11-25T06:52:20.500Z,1.74
2022-11-25T06:53:24.076Z,1.68
2022-11-25T06:54:21.348Z,1.71
2022-11-25T06:55:20.307Z,1.62
2022-11-25T06:56:20.339Z,1.68
2022-11-25T06:57:20.296Z,1.71
2022-11-25T06:58:35.436Z,1.62
2022-11-25T06:59:22.278Z,1.59
2022-11-25T07:00:20.267Z,1.59
2022-11-25T07:01:20.295Z,1.66
2022-11-25T07:02:20.320Z,1.73
2022-11-25T07:03:20.344Z,1.67
2022-11-25T07:04:20.277Z,1.71
2022-11-25T07:05:20.917Z,1.71
2022-11-25T07:06:20.260Z,1.71
2022-11-25T07:07:20.251Z,1.59
2022-11-25T07:08:20.217Z,1.66
2022-11-25T07:09:20.235Z,1.62
2022-11-25T07:10:20.230Z,1.60
2022-11-25T07:11:20.208Z,1.55
2022-11-25T07:12:20.197Z,1.63
2022-11-25T07:13:20.191Z,1.60
2022-11-25T07:14:20.167Z,1.62
2022-11-25T07:15:20.206Z,1.63
2022-11-25T07:16:20.236Z,1.67
2022-11-25T07:17:20.197Z,1.76
2022-11-25T07:18:20.212Z,1.67
2022-11-25T07:19:20.136Z,1.74
2022-11-25T07:20:20.143Z,1.76
2022-11-25T07:21:20.124Z,1.78
2022-11-25T07:22:20.115Z,1.95
2022-11-25T07:23:20.099Z,1.97
2022-11-25T07:24:20.083Z,1.95
2022-11-25T07:25:20.223Z,1.87
2022-11-25T07:26:20.091Z,1.76
2022-11-25T07:27:20.118Z,1.84
2022-11-25T07:28:20.065Z,1.94
2022-11-25T07:31:23.708Z,1.99
2022-11-25T07:32:22.569Z,2.02
2022-11-25T07:33:20.187Z,2.02
2022-11-25T07:34:20.181Z,2.11
2022-11-25T07:35:21.010Z,2.10
2022-11-25T07:36:20.061Z,2.20
2022-11-25T07:37:20.001Z,2.17
2022-11-25T07:38:19.996Z,2.20
2022-11-25T07:39:20.028Z,2.24
2022-11-25T07:40:19.971Z,2.11
2022-11-25T07:41:19.962Z,2.18
2022-11-25T07:42:19.966Z,2.25
2022-11-25T07:43:19.944Z,2.20
2022-11-25T07:44:19.972Z,2.10
2022-11-25T07:45:19.948Z,2.18
2022-11-25T07:46:26.276Z,2.22
2022-11-25T07:47:21.931Z,2.28
2022-11-25T07:48:20.922Z,2.24
2022-11-25T07:49:19.891Z,2.32
2022-11-25T07:50:19.887Z,2.26
2022-11-25T07:51:19.900Z,2.26
2022-11-25T07:52:19.905Z,2.28
2022-11-25T07:53:19.915Z,2.24
2022-11-25T07:54:19.866Z,2.32
2022-11-25T07:55:19.868Z,2.35
2022-11-25T07:56:19.851Z,2.33
2022-11-25T07:57:19.839Z,2.35
2022-11-25T07:58:19.852Z,2.32
2022-11-25T07:59:19.856Z,2.31
2022-11-25T08:00:19.838Z,2.36
2022-11-25T08:01:19.938Z,2.38
2022-11-25T08:02:19.856Z,2.35
2022-11-25T08:03:19.979Z,2.38
2022-11-25T08:04:21.023Z,2.44
2022-11-25T08:05:20.791Z,2.50
2022-11-25T08:06:19.822Z,2.61
2022-11-25T08:07:19.819Z,2.64
2022-11-25T08:08:19.772Z,2.75
2022-11-25T08:09:19.758Z,2.80
2022-11-25T08:10:19.755Z,2.87
2022-11-25T08:11:19.777Z,2.89
2022-11-25T08:12:19.767Z,2.86
2022-11-25T08:13:19.824Z,2.89
2022-11-25T08:14:19.731Z,2.97
2022-11-25T08:15:19.727Z,2.90
2022-11-25T08:16:19.761Z,3.07
2022-11-25T08:17:19.719Z,2.95
2022-11-25T08:18:19.697Z,3.03
2022-11-25T08:19:19.709Z,2.97
2022-11-25T08:20:19.688Z,2.98
2022-11-25T08:21:19.677Z,3.01
2022-11-25T08:22:19.701Z,3.00
2022-11-25T08:23:19.661Z,2.93
2022-11-25T08:24:19.696Z,3.00
2022-11-25T08:25:19.636Z,3.07
2022-11-25T08:26:19.650Z,3.03
2022-11-25T08:27:19.648Z,3.21
2022-11-25T08:28:19.615Z,3.00
2022-11-25T08:29:19.632Z,3.03
2022-11-25T08:30:19.622Z,3.11
2022-11-25T08:31:51.531Z,2.90
2022-11-25T08:32:19.592Z,2.97
2022-11-25T08:33:19.578Z,2.93
2022-11-25T08:34:19.575Z,2.93
2022-11-25T08:35:20.535Z,2.93
2022-11-25T08:36:19.577Z,2.97
2022-11-25T08:37:19.598Z,3.07
2022-11-25T08:38:20.389Z,3.07
2022-11-25T08:40:21.632Z,3.18
2022-11-25T08:41:19.528Z,3.22
2022-11-25T08:42:19.542Z,3.23
2022-11-25T08:43:22.789Z,3.25
2022-11-25T08:44:20.499Z,3.26
2022-11-25T08:45:19.518Z,3.34
2022-11-25T08:46:19.530Z,3.34
2022-11-25T08:47:19.483Z,3.22
2022-11-25T08:48:19.579Z,3.23
2022-11-25T08:49:20.026Z,3.34
2022-11-25T08:50:19.483Z,3.45
2022-11-25T08:51:20.034Z,3.56
2022-11-25T08:52:19.506Z,3.56
2022-11-25T08:53:19.462Z,3.65
2022-11-25T08:54:19.449Z,3.60
2022-11-25T08:55:19.451Z,3.62
2022-11-25T08:56:24.338Z,3.60
2022-11-25T08:57:21.442Z,3.51
2022-11-25T08:58:19.451Z,3.44
2022-11-25T08:59:19.378Z,3.58
2022-11-25T09:00:19.406Z,3.55
2022-11-25T09:01:20.440Z,3.63
2022-11-25T09:02:19.492Z,3.68
2022-11-25T09:03:19.412Z,3.86
2022-11-25T09:04:19.388Z,3.88
2022-11-25T09:05:19.378Z,3.88
2022-11-25T09:06:19.374Z,3.94
2022-11-25T09:07:19.381Z,3.92
2022-11-25T09:08:19.303Z,3.73
2022-11-25T09:09:19.296Z,3.78
2022-11-25T09:10:19.291Z,3.70
2022-11-25T09:11:19.338Z,3.92
2022-11-25T09:12:19.341Z,3.98
2022-11-25T09:13:19.365Z,3.92
2022-11-25T09:14:19.306Z,3.92
2022-11-25T09:15:19.258Z,3.98
2022-11-25T09:16:19.423Z,4.01
2022-11-25T09:17:19.292Z,4.01
2022-11-25T09:18:19.254Z,4.04
2022-11-25T09:19:19.269Z,4.02
2022-11-25T09:20:19.245Z,4.02
2022-11-25T09:21:19.245Z,4.17
2022-11-25T09:22:19.223Z,4.13
2022-11-25T09:23:19.218Z,4.20
2022-11-25T09:24:19.195Z,4.26
2022-11-25T09:25:19.233Z,4.37
2022-11-25T09:26:19.182Z,4.28
2022-11-25T09:27:19.219Z,4.35
2022-11-25T09:28:19.182Z,4.41
2022-11-25T09:29:19.160Z,4.42
2022-11-25T09:30:19.174Z,4.26
2022-11-25T09:31:19.206Z,4.20
2022-11-25T09:32:20.029Z,4.40
2022-11-25T09:33:19.169Z,4.48
2022-11-25T09:34:19.184Z,4.56
2022-11-25T09:35:19.100Z,4.59
2022-11-25T09:36:19.138Z,4.67
2022-11-25T09:37:19.122Z,4.78
2022-11-25T09:38:19.085Z,4.75
2022-11-25T09:39:19.093Z,4.71
2022-11-25T09:40:19.071Z,4.78
2022-11-25T09:41:19.069Z,4.67
2022-11-25T09:42:19.118Z,4.86
2022-11-25T09:43:19.043Z,4.90
2022-11-25T09:44:19.065Z,4.87
2022-11-25T09:45:19.027Z,4.90
2022-11-25T09:46:20.087Z,4.90
2022-11-25T09:47:19.011Z,4.87
2022-11-25T09:48:19.033Z,5.00
2022-11-25T09:49:19.034Z,4.90
2022-11-25T09:50:18.993Z,4.93
2022-11-25T09:51:19.006Z,4.87
2022-11-25T09:52:18.981Z,4.93
2022-11-25T09:53:18.997Z,5.00
2022-11-25T09:54:18.993Z,5.05
2022-11-25T09:55:18.977Z,4.93
2022-11-25T09:56:19.031Z,4.99
2022-11-25T09:57:18.947Z,5.10
2022-11-25T09:58:18.944Z,5.17
2022-11-25T09:59:18.949Z,4.93
2022-11-25T10:00:18.943Z,5.08
2022-11-25T10:01:19.608Z,5.02
2022-11-25T10:02:19.026Z,4.97
2022-11-25T10:03:19.023Z,4.93
2022-11-25T10:04:18.884Z,4.87
2022-11-25T10:05:18.878Z,4.84
2022-11-25T10:06:18.974Z,4.89
2022-11-25T10:07:18.907Z,5.00
2022-11-25T10:08:19.650Z,4.96
2022-11-25T10:09:18.860Z,5.00
2022-11-25T10:10:18.963Z,5.04
2022-11-25T10:11:18.840Z,5.14
2022-11-25T10:12:18.879Z,5.20
2022-11-25T10:13:19.779Z,5.29
2022-11-25T10:14:18.835Z,5.29
2022-11-25T10:15:18.794Z,5.18
2022-11-25T10:16:18.839Z,5.21
2022-11-25T10:17:18.800Z,5.30
2022-11-25T10:18:18.782Z,5.32
2022-11-25T10:19:18.768Z,5.29
2022-11-25T10:20:18.814Z,5.35
2022-11-25T10:21:18.749Z,5.35
2022-11-25T10:22:18.769Z,5.35
2022-11-25T10:23:22.261Z,5.32
2022-11-25T10:24:19.736Z,5.29
2022-11-25T10:25:18.711Z,5.36
2022-11-25T10:26:18.749Z,5.25
2022-11-25T10:27:18.739Z,5.23
2022-11-25T10:28:18.696Z,5.21
2022-11-25T10:29:18.704Z,5.30
2022-11-25T10:30:18.937Z,5.36
2022-11-25T10:31:18.777Z,5.29
2022-11-25T10:32:18.655Z,5.43
2022-11-25T10:33:18.658Z,5.39
2022-11-25T10:34:18.654Z,5.28
2022-11-25T10:35:18.652Z,5.39
2022-11-25T10:36:18.665Z,5.35
2022-11-25T10:37:18.619Z,5.30
2022-11-25T10:38:19.303Z,5.43
2022-11-25T10:39:19.811Z,5.32
2022-11-25T10:40:18.676Z,5.32
2022-11-25T10:41:18.591Z,5.32
2022-11-25T10:42:18.630Z,5.32
2022-11-25T10:43:18.594Z,5.23
2022-11-25T10:44:18.697Z,5.29
2022-11-25T10:45:18.591Z,5.30
2022-11-25T10:46:18.640Z,5.30
2022-11-25T10:47:18.638Z,5.30
2022-11-25T10:48:18.558Z,5.35
2022-11-25T10:49:18.579Z,5.33
2022-11-25T10:50:18.579Z,5.26
2022-11-25T10:51:18.550Z,5.43
2022-11-25T10:52:18.531Z,5.48
2022-11-25T10:53:18.534Z,5.50
2022-11-25T10:54:22.692Z,5.50
2022-11-25T10:55:19.562Z,5.56
2022-11-25T10:56:18.592Z,5.57
2022-11-25T10:57:19.509Z,5.66
2022-11-25T10:58:18.507Z,5.61
2022-11-25T10:59:18.494Z,5.54
2022-11-25T11:00:18.477Z,5.72
2022-11-25T11:01:18.535Z,5.73
2022-11-25T11:02:18.541Z,5.69
2022-11-25T11:03:18.467Z,5.76
2022-11-25T11:04:18.446Z,5.80
2022-11-25T11:05:18.487Z,5.76
2022-11-25T11:06:18.463Z,5.80
2022-11-25T11:07:18.501Z,5.75
2022-11-25T11:08:18.448Z,5.89
2022-11-25T11:10:04.964Z,5.89
2022-11-25T11:11:04.959Z,5.86
2022-11-25T11:12:04.953Z,5.98
2022-11-25T11:13:06.143Z,5.94
2022-11-25T11:14:06.747Z,5.98
2022-11-25T11:15:06.051Z,6.02
2022-11-25T11:16:06.100Z,6.04
2022-11-25T11:17:06.056Z,6.02
2022-11-25T11:18:06.045Z,6.08
2022-11-25T11:19:06.022Z,6.08
2022-11-25T11:20:06.031Z,6.24
2022-11-25T11:21:06.042Z,6.14
2022-11-25T11:22:05.990Z,6.16
2022-11-25T11:23:09.127Z,6.17
2022-11-25T11:24:06.998Z,6.12
2022-11-25T11:25:05.993Z,6.14
2022-11-25T11:26:06.065Z,6.22
2022-11-25T11:27:05.972Z,6.22
2022-11-25T11:28:06.004Z,6.27
2022-11-25T11:29:09.820Z,6.31
2022-11-25T11:30:07.970Z,6.16
2022-11-25T11:31:06.021Z,6.11
2022-11-25T11:32:05.952Z,6.16
2022-11-25T11:33:05.921Z,6.09
2022-11-25T11:34:05.920Z,6.16
2022-11-25T11:35:05.949Z,6.26
2022-11-25T11:36:05.883Z,6.28
2022-11-25T11:37:05.897Z,6.28
2022-11-25T11:38:05.882Z,6.20
2022-11-25T11:39:05.929Z,6.17
2022-11-25T11:40:05.901Z,6.27
2022-11-25T11:41:05.850Z,6.33
2022-11-25T11:42:05.894Z,6.39
2022-11-25T11:43:05.977Z,6.38
2022-11-25T11:44:06.729Z,6.39
2022-11-25T11:45:05.837Z,6.39
2022-11-25T11:46:05.830Z,6.45
2022-11-25T11:47:05.881Z,6.45
2022-11-25T11:48:05.821Z,6.56
2022-11-25T11:49:05.813Z,6.84
2022-11-25T11:50:05.854Z,6.85
2022-11-25T11:51:06.663Z,6.82
2022-11-25T11:52:05.756Z,6.88
2022-11-25T11:53:05.763Z,7.00
2022-11-25T11:54:05.829Z,7.13
2022-11-25T11:55:05.823Z,7.15
2022-11-25T11:56:33.520Z,7.25
2022-11-25T11:57:07.718Z,7.42
2022-11-25T11:58:05.708Z,7.47
2022-11-25T11:59:05.725Z,7.40
2022-11-25T12:00:05.762Z,7.43
2022-11-25T12:01:05.782Z,7.43
2022-11-25T12:02:05.798Z,7.45
2022-11-25T12:03:05.778Z,7.42
2022-11-25T12:04:05.789Z,7.35
2022-11-25T12:05:05.744Z,7.43
2022-11-25T12:06:05.695Z,7.40
2022-11-25T12:07:05.828Z,7.36
2022-11-25T12:08:05.655Z,7.40
2022-11-25T12:09:05.641Z,7.47
2022-11-25T12:10:05.626Z,7.38
2022-11-25T12:11:05.662Z,7.32
2022-11-25T12:12:05.618Z,7.45
2022-11-25T12:13:05.591Z,7.31
2022-11-25T12:14:05.593Z,7.40
2022-11-25T12:15:05.589Z,7.40
2022-11-25T12:16:05.654Z,7.38
2022-11-25T12:17:05.687Z,7.63
2022-11-25T12:18:05.614Z,7.58
2022-11-25T12:19:05.626Z,7.67
2022-11-25T12:20:05.525Z,7.67
2022-11-25T12:21:05.564Z,7.87
2022-11-25T12:22:05.685Z,7.94
2022-11-25T12:23:05.513Z,7.94
2022-11-25T12:24:05.552Z,8.08
2022-11-25T12:25:05.515Z,8.05
2022-11-25T12:26:05.502Z,8.16
2022-11-25T12:27:05.547Z,8.08
2022-11-25T12:28:05.501Z,8.05
2022-11-25T12:29:05.472Z,8.09
2022-11-25T12:30:05.467Z,8.06
2022-11-25T12:31:05.640Z,8.08
2022-11-25T12:32:06.532Z,8.03
2022-11-25T12:33:05.434Z,8.00
2022-11-25T12:34:05.483Z,7.94
2022-11-25T12:35:05.554Z,7.88
2022-11-25T12:36:05.430Z,8.00
2022-11-25T12:37:07.470Z,7.94
2022-11-25T12:38:06.401Z,7.95
2022-11-25T12:39:05.446Z,8.08
2022-11-25T12:40:08.172Z,8.00
2022-11-25T12:41:05.553Z,8.00
2022-11-25T12:42:06.047Z,8.06
2022-11-25T12:43:05.371Z,7.97
2022-11-25T12:44:05.378Z,7.93
2022-11-25T12:45:05.640Z,7.97
2022-11-25T12:46:05.388Z,7.91
2022-11-25T12:47:05.346Z,8.01
2022-11-25T12:48:05.543Z,7.91
2022-11-25T12:49:05.378Z,8.01
2022-11-25T12:50:05.332Z,8.05
2022-11-25T12:51:05.349Z,7.98
2022-11-25T12:52:05.291Z,7.97
2022-11-25T12:53:05.309Z,7.90
2022-11-25T12:54:05.327Z,8.03
2022-11-25T12:55:05.299Z,7.94
2022-11-25T12:56:05.268Z,7.98
2022-11-25T12:57:06.273Z,7.93
2022-11-25T12:58:05.249Z,8.01
2022-11-25T12:59:05.380Z,8.00
2022-11-25T13:00:39.156Z,7.97
2022-11-25T13:01:07.407Z,7.98
2022-11-25T13:02:05.391Z,8.01
2022-11-25T13:03:08.104Z,8.00
2022-11-25T13:04:07.234Z,7.94
2022-11-25T13:05:33.011Z,8.05
2022-11-25T13:06:07.204Z,8.00
2022-11-25T13:07:05.202Z,8.09
2022-11-25T13:08:06.164Z,8.01
2022-11-25T13:09:06.298Z,8.10
2022-11-25T13:10:05.176Z,8.05
2022-11-25T13:11:05.391Z,8.09
2022-11-25T13:12:05.519Z,8.19
2022-11-25T13:13:05.455Z,8.26
2022-11-25T13:14:05.445Z,8.33
2022-11-25T13:15:05.683Z,8.36
2022-11-25T13:16:05.597Z,8.34
2022-11-25T13:17:05.633Z,8.38
2022-11-25T13:18:05.159Z,8.48
2022-11-25T13:19:05.128Z,8.52
2022-11-25T13:20:05.077Z,8.46
2022-11-25T13:21:05.058Z,8.42
2022-11-25T13:22:05.089Z,8.53
2022-11-25T13:23:05.045Z,8.55
2022-11-25T13:24:05.133Z,8.63
2022-11-25T13:25:05.283Z,8.78
2022-11-25T13:26:05.047Z,8.79
2022-11-25T13:27:05.014Z,8.81
2022-11-25T13:28:05.181Z,8.70
2022-11-25T13:29:05.010Z,8.71
2022-11-25T13:30:05.134Z,8.85
2022-11-25T13:31:05.928Z,8.82
2022-11-25T13:32:05.026Z,8.66
2022-11-25T13:33:05.127Z,8.70
2022-11-25T13:34:05.012Z,8.58
2022-11-25T13:35:05.130Z,8.58
2022-11-25T13:36:04.974Z,8.55
2022-11-25T13:37:04.970Z,8.52
2022-11-25T13:38:04.983Z,8.55
2022-11-25T13:39:04.994Z,8.56